Terminal Aerodrome Forecast
Issued by NWS

Home | Current Version | Previous Version | Text Only | Print | Product List | Glossary On
Versions: 1 2 3 4 5 6 7 8 9 10 11 12 13 14 15 16 17 18 19 20 21 22 23 24 25 26 27 28 29 30 31 32 33 34 35 36
279
FTUS46 KLOX 210224 AAA
TAFSBA
TAF AMD
KSBA 210224Z 2102/2124 32012KT P6SM VCSH SCT025 BKN050
     FM210300 31015G25KT P6SM -SHRA BKN025 OVC040
      TEMPO 2103/2105 BKN012 OVC025
     FM211100 31010KT P6SM VCSH SCT025 BKN050
     FM212000 27010KT P6SM SCT025 SCT050=

USA.gov is the U.S. government's official web portal to all federal, state and local government web resources and services.